sensor_id;sensor_type;location;lat;lon;timestamp;temperature;humidity
39931;DHT22;26635;-35.248;149.138;2022-08-01T00:01:17;9.70;92.50
39931;DHT22;26635;-35.248;149.138;2022-08-01T00:03:48;9.60;92.50
39931;DHT22;26635;-35.248;149.138;2022-08-01T00:06:21;9.60;92.10
39931;DHT22;26635;-35.248;149.138;2022-08-01T00:09:04;9.60;92.20
39931;DHT22;26635;-35.248;149.138;2022-08-01T00:11:35;9.60;91.80
39931;DHT22;26635;-35.248;149.138;2022-08-01T00:14:07;9.70;91.60
39931;DHT22;26635;-35.248;149.138;2022-08-01T00:16:41;9.70;92.20
39931;DHT22;26635;-35.248;149.138;2022-08-01T00:19:15;9.70;92.00
39931;DHT22;26635;-35.248;149.138;2022-08-01T00:21:47;9.70;92.00
39931;DHT22;26635;-35.248;149.138;2022-08-01T00:24:29;9.60;91.80
39931;DHT22;26635;-35.248;149.138;2022-08-01T00:27:01;9.70;91.70
39931;DHT22;26635;-35.248;149.138;2022-08-01T00:29:32;9.70;92.40
39931;DHT22;26635;-35.248;149.138;2022-08-01T00:32:23;9.90;91.80
39931;DHT22;26635;-35.248;149.138;2022-08-01T00:34:53;10.00;91.80
39931;DHT22;26635;-35.248;149.138;2022-08-01T00:37:25;10.20;91.70
39931;DHT22;26635;-35.248;149.138;2022-08-01T00:39:57;10.30;91.00
39931;DHT22;26635;-35.248;149.138;2022-08-01T00:42:29;10.40;90.80
39931;DHT22;26635;-35.248;149.138;2022-08-01T00:45:00;10.60;91.10
39931;DHT22;26635;-35.248;149.138;2022-08-01T00:47:32;10.70;90.50
39931;DHT22;26635;-35.248;149.138;2022-08-01T00:50:05;10.80;90.00
39931;DHT22;26635;-35.248;149.138;2022-08-01T00:52:38;10.90;89.80
39931;DHT22;26635;-35.248;149.138;2022-08-01T00:55:19;11.10;89.00
39931;DHT22;26635;-35.248;149.138;2022-08-01T00:57:50;11.20;85.30
39931;DHT22;26635;-35.248;149.138;2022-08-01T01:00:41;11.20;86.90
39931;DHT22;26635;-35.248;149.138;2022-08-01T01:03:22;11.10;85.10
39931;DHT22;26635;-35.248;149.138;2022-08-01T01:08:53;10.90;84.30
39931;DHT22;26635;-35.248;149.138;2022-08-01T01:11:47;10.80;84.10
39931;DHT22;26635;-35.248;149.138;2022-08-01T01:14:42;10.70;82.90
39931;DHT22;26635;-35.248;149.138;2022-08-01T01:17:21;10.50;84.60
39931;DHT22;26635;-35.248;149.138;2022-08-01T01:20:26;10.40;85.30
39931;DHT22;26635;-35.248;149.138;2022-08-01T01:29:41;10.50;85.50
39931;DHT22;26635;-35.248;149.138;2022-08-01T01:32:39;10.70;85.80
39931;DHT22;26635;-35.248;149.138;2022-08-01T01:35:22;10.80;83.00
39931;DHT22;26635;-35.248;149.138;2022-08-01T01:38:17;10.90;81.90
39931;DHT22;26635;-35.248;149.138;2022-08-01T01:41:07;10.90;81.80
39931;DHT22;26635;-35.248;149.138;2022-08-01T01:43:51;10.90;79.40
39931;DHT22;26635;-35.248;149.138;2022-08-01T01:46:24;10.90;80.40
39931;DHT22;26635;-35.248;149.138;2022-08-01T01:49:02;11.00;80.60
39931;DHT22;26635;-35.248;149.138;2022-08-01T01:51:33;11.30;84.40
39931;DHT22;26635;-35.248;149.138;2022-08-01T01:54:05;11.50;83.10
39931;DHT22;26635;-35.248;149.138;2022-08-01T01:56:42;11.80;81.10
39931;DHT22;26635;-35.248;149.138;2022-08-01T01:59:33;12.00;81.20
39931;DHT22;26635;-35.248;149.138;2022-08-01T02:02:06;12.20;81.00
39931;DHT22;26635;-35.248;149.138;2022-08-01T02:04:41;12.40;78.40
39931;DHT22;26635;-35.248;149.138;2022-08-01T02:07:22;12.50;76.00
39931;DHT22;26635;-35.248;149.138;2022-08-01T02:09:55;12.50;76.00
39931;DHT22;26635;-35.248;149.138;2022-08-01T02:12:27;12.50;76.40
39931;DHT22;26635;-35.248;149.138;2022-08-01T02:15:02;12.60;76.20
39931;DHT22;26635;-35.248;149.138;2022-08-01T02:17:39;12.70;76.90
39931;DHT22;26635;-35.248;149.138;2022-08-01T02:20:12;12.70;76.30
39931;DHT22;26635;-35.248;149.138;2022-08-01T02:22:53;12.80;77.20
39931;DHT22;26635;-35.248;149.138;2022-08-01T02:25:39;12.80;75.30
39931;DHT22;26635;-35.248;149.138;2022-08-01T02:28:57;12.80;75.80
39931;DHT22;26635;-35.248;149.138;2022-08-01T02:31:31;13.00;76.50
39931;DHT22;26635;-35.248;149.138;2022-08-01T02:34:06;13.10;75.00
39931;DHT22;26635;-35.248;149.138;2022-08-01T02:36:37;13.10;74.20
39931;DHT22;26635;-35.248;149.138;2022-08-01T02:39:14;13.20;73.30
39931;DHT22;26635;-35.248;149.138;2022-08-01T02:41:51;13.10;72.90
39931;DHT22;26635;-35.248;149.138;2022-08-01T02:44:31;13.20;74.90
39931;DHT22;26635;-35.248;149.138;2022-08-01T02:47:05;13.20;74.30
39931;DHT22;26635;-35.248;149.138;2022-08-01T02:49:42;13.30;75.30
39931;DHT22;26635;-35.248;149.138;2022-08-01T02:52:21;13.30;73.90
39931;DHT22;26635;-35.248;149.138;2022-08-01T02:54:55;13.30;75.90
39931;DHT22;26635;-35.248;149.138;2022-08-01T02:57:29;13.40;74.40
39931;DHT22;26635;-35.248;149.138;2022-08-01T03:00:22;13.50;73.50
39931;DHT22;26635;-35.248;149.138;2022-08-01T03:02:56;13.50;73.40
39931;DHT22;26635;-35.248;149.138;2022-08-01T03:05:29;13.50;72.70
39931;DHT22;26635;-35.248;149.138;2022-08-01T03:08:03;13.50;72.20
39931;DHT22;26635;-35.248;149.138;2022-08-01T03:10:44;13.60;74.50
39931;DHT22;26635;-35.248;149.138;2022-08-01T03:16:07;13.80;72.40
39931;DHT22;26635;-35.248;149.138;2022-08-01T03:18:38;13.90;73.00
39931;DHT22;26635;-35.248;149.138;2022-08-01T03:21:14;13.90;70.60
39931;DHT22;26635;-35.248;149.138;2022-08-01T03:23:46;13.80;70.90
39931;DHT22;26635;-35.248;149.138;2022-08-01T03:26:26;13.80;70.70
39931;DHT22;26635;-35.248;149.138;2022-08-01T03:29:02;13.80;71.70
39931;DHT22;26635;-35.248;149.138;2022-08-01T03:31:38;13.70;71.00
39931;DHT22;26635;-35.248;149.138;2022-08-01T03:34:14;13.70;70.10
39931;DHT22;26635;-35.248;149.138;2022-08-01T03:37:10;13.60;68.40
39931;DHT22;26635;-35.248;149.138;2022-08-01T03:40:07;13.50;69.60
39931;DHT22;26635;-35.248;149.138;2022-08-01T03:42:44;13.30;70.00
39931;DHT22;26635;-35.248;149.138;2022-08-01T03:45:25;13.20;70.20
39931;DHT22;26635;-35.248;149.138;2022-08-01T03:48:18;13.10;70.30
39931;DHT22;26635;-35.248;149.138;2022-08-01T03:50:51;13.00;71.60
39931;DHT22;26635;-35.248;149.138;2022-08-01T03:53:25;12.90;72.20
39931;DHT22;26635;-35.248;149.138;2022-08-01T03:56:00;13.00;72.90
39931;DHT22;26635;-35.248;149.138;2022-08-01T03:58:31;12.90;71.10
39931;DHT22;26635;-35.248;149.138;2022-08-01T04:01:03;12.80;71.90
39931;DHT22;26635;-35.248;149.138;2022-08-01T04:03:44;12.50;71.00
39931;DHT22;26635;-35.248;149.138;2022-08-01T04:06:15;12.40;72.80
39931;DHT22;26635;-35.248;149.138;2022-08-01T04:08:47;12.40;73.20
39931;DHT22;26635;-35.248;149.138;2022-08-01T04:11:27;12.40;75.80
39931;DHT22;26635;-35.248;149.138;2022-08-01T04:13:58;12.50;75.80
39931;DHT22;26635;-35.248;149.138;2022-08-01T04:16:36;12.50;74.00
39931;DHT22;26635;-35.248;149.138;2022-08-01T04:19:08;12.60;75.30
39931;DHT22;26635;-35.248;149.138;2022-08-01T04:21:38;12.60;76.60
39931;DHT22;26635;-35.248;149.138;2022-08-01T04:24:20;12.70;75.40
39931;DHT22;26635;-35.248;149.138;2022-08-01T04:26:54;12.80;73.70
39931;DHT22;26635;-35.248;149.138;2022-08-01T04:29:25;12.70;74.10
39931;DHT22;26635;-35.248;149.138;2022-08-01T04:31:57;12.80;74.70
39931;DHT22;26635;-35.248;149.138;2022-08-01T04:34:32;12.80;74.90
39931;DHT22;26635;-35.248;149.138;2022-08-01T04:37:03;12.80;74.90
39931;DHT22;26635;-35.248;149.138;2022-08-01T04:39:35;12.80;74.10
39931;DHT22;26635;-35.248;149.138;2022-08-01T04:42:18;12.80;73.10
39931;DHT22;26635;-35.248;149.138;2022-08-01T04:44:58;12.80;73.20
39931;DHT22;26635;-35.248;149.138;2022-08-01T04:47:31;12.70;73.40
39931;DHT22;26635;-35.248;149.138;2022-08-01T04:50:08;12.60;72.80
39931;DHT22;26635;-35.248;149.138;2022-08-01T04:52:39;12.60;73.80
39931;DHT22;26635;-35.248;149.138;2022-08-01T04:55:13;12.50;74.40
39931;DHT22;26635;-35.248;149.138;2022-08-01T04:57:47;12.50;75.60
39931;DHT22;26635;-35.248;149.138;2022-08-01T05:00:20;12.50;75.00
39931;DHT22;26635;-35.248;149.138;2022-08-01T05:02:51;12.50;74.60
39931;DHT22;26635;-35.248;149.138;2022-08-01T05:05:22;12.50;73.90
39931;DHT22;26635;-35.248;149.138;2022-08-01T05:07:55;12.50;74.50
39931;DHT22;26635;-35.248;149.138;2022-08-01T05:10:26;12.50;74.10
39931;DHT22;26635;-35.248;149.138;2022-08-01T05:12:57;12.40;73.90
39931;DHT22;26635;-35.248;149.138;2022-08-01T05:15:28;12.40;73.90
39931;DHT22;26635;-35.248;149.138;2022-08-01T05:17:58;12.40;73.80
39931;DHT22;26635;-35.248;149.138;2022-08-01T05:20:31;12.40;73.90
39931;DHT22;26635;-35.248;149.138;2022-08-01T05:23:04;12.30;73.80
39931;DHT22;26635;-35.248;149.138;2022-08-01T05:25:45;12.30;73.30
39931;DHT22;26635;-35.248;149.138;2022-08-01T05:28:24;12.20;73.80
39931;DHT22;26635;-35.248;149.138;2022-08-01T05:30:55;12.20;72.60
39931;DHT22;26635;-35.248;149.138;2022-08-01T05:33:26;12.10;73.50
39931;DHT22;26635;-35.248;149.138;2022-08-01T05:36:01;12.10;73.70
39931;DHT22;26635;-35.248;149.138;2022-08-01T05:38:35;12.10;73.90
39931;DHT22;26635;-35.248;149.138;2022-08-01T05:41:06;12.10;73.00
39931;DHT22;26635;-35.248;149.138;2022-08-01T05:43:37;12.00;73.70
39931;DHT22;26635;-35.248;149.138;2022-08-01T05:46:07;12.00;73.20
39931;DHT22;26635;-35.248;149.138;2022-08-01T05:48:37;12.00;72.70
39931;DHT22;26635;-35.248;149.138;2022-08-01T05:51:14;12.00;73.70
39931;DHT22;26635;-35.248;149.138;2022-08-01T05:53:45;11.90;73.60
39931;DHT22;26635;-35.248;149.138;2022-08-01T05:56:17;11.80;72.90
39931;DHT22;26635;-35.248;149.138;2022-08-01T05:58:48;11.80;73.40
39931;DHT22;26635;-35.248;149.138;2022-08-01T06:01:21;11.80;73.60
39931;DHT22;26635;-35.248;149.138;2022-08-01T06:03:52;11.70;72.50
39931;DHT22;26635;-35.248;149.138;2022-08-01T06:06:23;11.70;73.20
39931;DHT22;26635;-35.248;149.138;2022-08-01T06:08:55;11.60;72.60
39931;DHT22;26635;-35.248;149.138;2022-08-01T06:11:26;11.60;72.50
39931;DHT22;26635;-35.248;149.138;2022-08-01T06:13:57;11.50;73.40
39931;DHT22;26635;-35.248;149.138;2022-08-01T06:16:32;11.40;74.10
39931;DHT22;26635;-35.248;149.138;2022-08-01T06:19:05;11.40;73.90
39931;DHT22;26635;-35.248;149.138;2022-08-01T06:21:37;11.30;73.70
39931;DHT22;26635;-35.248;149.138;2022-08-01T06:24:08;11.20;74.40
39931;DHT22;26635;-35.248;149.138;2022-08-01T06:26:40;11.10;74.70
39931;DHT22;26635;-35.248;149.138;2022-08-01T06:29:13;11.10;75.60
39931;DHT22;26635;-35.248;149.138;2022-08-01T06:31:44;11.00;76.00
39931;DHT22;26635;-35.248;149.138;2022-08-01T06:34:16;10.90;76.60
39931;DHT22;26635;-35.248;149.138;2022-08-01T06:36:47;10.80;76.90
39931;DHT22;26635;-35.248;149.138;2022-08-01T06:39:19;10.70;77.10
39931;DHT22;26635;-35.248;149.138;2022-08-01T06:41:52;10.70;76.90
39931;DHT22;26635;-35.248;149.138;2022-08-01T06:44:23;10.60;77.50
39931;DHT22;26635;-35.248;149.138;2022-08-01T06:46:55;10.50;78.00
39931;DHT22;26635;-35.248;149.138;2022-08-01T06:49:28;10.40;78.00
39931;DHT22;26635;-35.248;149.138;2022-08-01T06:52:00;10.40;79.00
39931;DHT22;26635;-35.248;149.138;2022-08-01T06:54:33;10.30;78.00
39931;DHT22;26635;-35.248;149.138;2022-08-01T06:57:06;10.20;79.30
39931;DHT22;26635;-35.248;149.138;2022-08-01T06:59:38;10.10;79.20
39931;DHT22;26635;-35.248;149.138;2022-08-01T07:02:22;10.10;80.00
39931;DHT22;26635;-35.248;149.138;2022-08-01T07:04:54;10.00;79.10
39931;DHT22;26635;-35.248;149.138;2022-08-01T07:07:31;10.00;79.80
39931;DHT22;26635;-35.248;149.138;2022-08-01T07:10:01;9.90;79.70
39931;DHT22;26635;-35.248;149.138;2022-08-01T07:12:33;9.80;80.20
39931;DHT22;26635;-35.248;149.138;2022-08-01T07:15:05;9.80;80.70
39931;DHT22;26635;-35.248;149.138;2022-08-01T07:17:41;9.70;80.80
39931;DHT22;26635;-35.248;149.138;2022-08-01T07:20:12;9.70;81.60
39931;DHT22;26635;-35.248;149.138;2022-08-01T07:22:46;9.60;82.00
39931;DHT22;26635;-35.248;149.138;2022-08-01T07:25:17;9.50;81.50
39931;DHT22;26635;-35.248;149.138;2022-08-01T07:27:49;9.40;82.10
39931;DHT22;26635;-35.248;149.138;2022-08-01T07:30:20;9.40;83.20
39931;DHT22;26635;-35.248;149.138;2022-08-01T07:32:52;9.30;82.20
39931;DHT22;26635;-35.248;149.138;2022-08-01T07:35:28;9.20;82.70
39931;DHT22;26635;-35.248;149.138;2022-08-01T07:37:58;9.10;81.90
39931;DHT22;26635;-35.248;149.138;2022-08-01T07:40:31;9.00;83.30
39931;DHT22;26635;-35.248;149.138;2022-08-01T07:43:02;8.90;84.30
39931;DHT22;26635;-35.248;149.138;2022-08-01T07:45:36;8.80;84.10
39931;DHT22;26635;-35.248;149.138;2022-08-01T07:48:13;8.70;84.60
39931;DHT22;26635;-35.248;149.138;2022-08-01T07:50:48;8.70;84.20
39931;DHT22;26635;-35.248;149.138;2022-08-01T07:53:20;8.70;85.30
39931;DHT22;26635;-35.248;149.138;2022-08-01T07:55:53;8.70;84.40
39931;DHT22;26635;-35.248;149.138;2022-08-01T07:58:24;8.70;84.70
39931;DHT22;26635;-35.248;149.138;2022-08-01T08:00:56;8.70;84.80
39931;DHT22;26635;-35.248;149.138;2022-08-01T08:03:28;8.60;85.70
39931;DHT22;26635;-35.248;149.138;2022-08-01T08:06:02;8.60;84.60
39931;DHT22;26635;-35.248;149.138;2022-08-01T08:08:35;8.50;86.20
39931;DHT22;26635;-35.248;149.138;2022-08-01T08:11:11;8.50;85.90
39931;DHT22;26635;-35.248;149.138;2022-08-01T08:13:47;8.50;86.90
39931;DHT22;26635;-35.248;149.138;2022-08-01T08:16:25;8.40;87.30
39931;DHT22;26635;-35.248;149.138;2022-08-01T08:19:01;8.30;85.70
39931;DHT22;26635;-35.248;149.138;2022-08-01T08:21:33;8.20;87.40
39931;DHT22;26635;-35.248;149.138;2022-08-01T08:24:10;8.20;87.10
39931;DHT22;26635;-35.248;149.138;2022-08-01T08:27:02;8.10;87.20
39931;DHT22;26635;-35.248;149.138;2022-08-01T08:29:51;8.10;87.20
39931;DHT22;26635;-35.248;149.138;2022-08-01T08:32:30;8.10;86.80
39931;DHT22;26635;-35.248;149.138;2022-08-01T08:35:12;8.10;87.10
39931;DHT22;26635;-35.248;149.138;2022-08-01T08:38:25;8.10;86.90
39931;DHT22;26635;-35.248;149.138;2022-08-01T08:41:24;8.10;87.60
39931;DHT22;26635;-35.248;149.138;2022-08-01T08:44:11;8.00;87.20
39931;DHT22;26635;-35.248;149.138;2022-08-01T08:47:12;8.00;88.60
39931;DHT22;26635;-35.248;149.138;2022-08-01T08:50:03;8.00;87.70
39931;DHT22;26635;-35.248;149.138;2022-08-01T08:52:40;7.90;88.10
39931;DHT22;26635;-35.248;149.138;2022-08-01T08:55:13;7.90;87.00
39931;DHT22;26635;-35.248;149.138;2022-08-01T08:57:52;7.90;88.60
39931;DHT22;26635;-35.248;149.138;2022-08-01T09:00:27;7.90;88.30
39931;DHT22;26635;-35.248;149.138;2022-08-01T09:03:03;7.80;87.60
39931;DHT22;26635;-35.248;149.138;2022-08-01T09:05:36;7.80;88.20
39931;DHT22;26635;-35.248;149.138;2022-08-01T09:08:08;7.80;87.70
39931;DHT22;26635;-35.248;149.138;2022-08-01T09:10:39;7.80;88.20
39931;DHT22;26635;-35.248;149.138;2022-08-01T09:13:19;7.70;88.80
39931;DHT22;26635;-35.248;149.138;2022-08-01T09:15:54;7.70;88.80
39931;DHT22;26635;-35.248;149.138;2022-08-01T09:18:37;7.70;88.90
39931;DHT22;26635;-35.248;149.138;2022-08-01T09:21:24;7.70;88.90
39931;DHT22;26635;-35.248;149.138;2022-08-01T09:24:00;7.60;87.30
39931;DHT22;26635;-35.248;149.138;2022-08-01T09:26:46;7.60;88.40
39931;DHT22;26635;-35.248;149.138;2022-08-01T09:29:26;7.60;88.70
39931;DHT22;26635;-35.248;149.138;2022-08-01T09:32:17;7.60;89.20
39931;DHT22;26635;-35.248;149.138;2022-08-01T09:35:22;7.60;89.20
39931;DHT22;26635;-35.248;149.138;2022-08-01T09:39:14;7.60;89.40
39931;DHT22;26635;-35.248;149.138;2022-08-01T09:41:49;7.60;89.00
39931;DHT22;26635;-35.248;149.138;2022-08-01T09:44:42;7.60;89.20
39931;DHT22;26635;-35.248;149.138;2022-08-01T09:47:39;7.50;89.50
39931;DHT22;26635;-35.248;149.138;2022-08-01T09:50:11;7.50;90.30
39931;DHT22;26635;-35.248;149.138;2022-08-01T09:52:54;7.50;89.70
39931;DHT22;26635;-35.248;149.138;2022-08-01T09:55:32;7.50;90.00
39931;DHT22;26635;-35.248;149.138;2022-08-01T09:58:06;7.50;90.20
39931;DHT22;26635;-35.248;149.138;2022-08-01T10:00:59;7.40;90.50
39931;DHT22;26635;-35.248;149.138;2022-08-01T10:03:42;7.40;90.30
39931;DHT22;26635;-35.248;149.138;2022-08-01T10:06:22;7.40;90.30
39931;DHT22;26635;-35.248;149.138;2022-08-01T10:09:00;7.30;90.20
39931;DHT22;26635;-35.248;149.138;2022-08-01T10:11:39;7.30;90.50
39931;DHT22;26635;-35.248;149.138;2022-08-01T10:14:19;7.30;90.60
39931;DHT22;26635;-35.248;149.138;2022-08-01T10:16:59;7.30;90.70
39931;DHT22;26635;-35.248;149.138;2022-08-01T10:19:49;7.20;90.50
39931;DHT22;26635;-35.248;149.138;2022-08-01T10:22:28;7.20;90.90
39931;DHT22;26635;-35.248;149.138;2022-08-01T10:25:24;7.20;90.90
39931;DHT22;26635;-35.248;149.138;2022-08-01T10:28:19;7.20;90.60
39931;DHT22;26635;-35.248;149.138;2022-08-01T10:31:30;7.20;91.00
39931;DHT22;26635;-35.248;149.138;2022-08-01T10:34:24;7.20;91.00
39931;DHT22;26635;-35.248;149.138;2022-08-01T10:37:12;7.10;91.10
39931;DHT22;26635;-35.248;149.138;2022-08-01T10:39:54;7.10;91.10
39931;DHT22;26635;-35.248;149.138;2022-08-01T10:43:05;7.10;91.10
39931;DHT22;26635;-35.248;149.138;2022-08-01T10:45:58;7.10;91.70
39931;DHT22;26635;-35.248;149.138;2022-08-01T10:51:42;7.00;92.20
39931;DHT22;26635;-35.248;149.138;2022-08-01T10:54:24;6.90;92.10
39931;DHT22;26635;-35.248;149.138;2022-08-01T10:57:03;6.90;91.50
39931;DHT22;26635;-35.248;149.138;2022-08-01T10:59:52;6.80;92.10
39931;DHT22;26635;-35.248;149.138;2022-08-01T11:03:08;6.80;91.80
39931;DHT22;26635;-35.248;149.138;2022-08-01T11:06:38;6.80;91.80
39931;DHT22;26635;-35.248;149.138;2022-08-01T11:33:13;6.50;92.50
39931;DHT22;26635;-35.248;149.138;2022-08-01T11:36:29;6.50;92.40
39931;DHT22;26635;-35.248;149.138;2022-08-01T11:44:02;6.50;91.80
39931;DHT22;26635;-35.248;149.138;2022-08-01T11:47:46;6.50;92.50
39931;DHT22;26635;-35.248;149.138;2022-08-01T11:50:42;6.50;92.10
39931;DHT22;26635;-35.248;149.138;2022-08-01T11:58:34;6.50;92.30
39931;DHT22;26635;-35.248;149.138;2022-08-01T12:01:52;6.50;92.10
39931;DHT22;26635;-35.248;149.138;2022-08-01T12:09:28;6.40;92.40
39931;DHT22;26635;-35.248;149.138;2022-08-01T12:19:40;6.50;92.50
39931;DHT22;26635;-35.248;149.138;2022-08-01T12:22:25;6.60;92.60
39931;DHT22;26635;-35.248;149.138;2022-08-01T12:25:36;6.60;92.30
39931;DHT22;26635;-35.248;149.138;2022-08-01T12:28:22;6.60;92.70
39931;DHT22;26635;-35.248;149.138;2022-08-01T12:30:56;6.60;92.60
39931;DHT22;26635;-35.248;149.138;2022-08-01T12:33:54;6.50;92.30
39931;DHT22;26635;-35.248;149.138;2022-08-01T12:36:49;6.50;92.70
39931;DHT22;26635;-35.248;149.138;2022-08-01T12:48:09;6.50;92.60
39931;DHT22;26635;-35.248;149.138;2022-08-01T12:50:55;6.50;92.70
39931;DHT22;26635;-35.248;149.138;2022-08-01T12:53:54;6.40;92.50
39931;DHT22;26635;-35.248;149.138;2022-08-01T12:57:24;6.50;93.20
39931;DHT22;26635;-35.248;149.138;2022-08-01T13:04:02;6.50;93.00
39931;DHT22;26635;-35.248;149.138;2022-08-01T13:07:49;6.40;92.50
39931;DHT22;26635;-35.248;149.138;2022-08-01T13:11:16;6.40;93.10
39931;DHT22;26635;-35.248;149.138;2022-08-01T13:14:53;6.40;92.90
39931;DHT22;26635;-35.248;149.138;2022-08-01T13:17:53;6.40;93.10
39931;DHT22;26635;-35.248;149.138;2022-08-01T13:24:36;6.40;93.40
39931;DHT22;26635;-35.248;149.138;2022-08-01T13:31:54;6.40;93.60
39931;DHT22;26635;-35.248;149.138;2022-08-01T13:35:19;6.40;93.90
39931;DHT22;26635;-35.248;149.138;2022-08-01T13:39:00;6.40;93.50
39931;DHT22;26635;-35.248;149.138;2022-08-01T13:42:07;6.40;93.60
39931;DHT22;26635;-35.248;149.138;2022-08-01T13:45:16;6.40;93.70
39931;DHT22;26635;-35.248;149.138;2022-08-01T13:48:37;6.40;93.50
39931;DHT22;26635;-35.248;149.138;2022-08-01T13:55:14;6.50;93.60
39931;DHT22;26635;-35.248;149.138;2022-08-01T13:57:47;6.50;93.60
39931;DHT22;26635;-35.248;149.138;2022-08-01T14:00:27;6.60;93.50
39931;DHT22;26635;-35.248;149.138;2022-08-01T14:03:03;6.60;93.50
39931;DHT22;26635;-35.248;149.138;2022-08-01T14:05:57;6.60;93.50
39931;DHT22;26635;-35.248;149.138;2022-08-01T14:08:42;6.60;93.50
39931;DHT22;26635;-35.248;149.138;2022-08-01T14:11:17;6.60;93.50
39931;DHT22;26635;-35.248;149.138;2022-08-01T14:14:00;6.70;93.50
39931;DHT22;26635;-35.248;149.138;2022-08-01T14:16:52;6.70;93.40
39931;DHT22;26635;-35.248;149.138;2022-08-01T14:19:23;6.70;93.50
39931;DHT22;26635;-35.248;149.138;2022-08-01T14:22:15;6.70;93.90
39931;DHT22;26635;-35.248;149.138;2022-08-01T14:25:09;6.80;93.80
39931;DHT22;26635;-35.248;149.138;2022-08-01T14:28:09;6.80;93.80
39931;DHT22;26635;-35.248;149.138;2022-08-01T14:30:48;6.80;93.60
39931;DHT22;26635;-35.248;149.138;2022-08-01T14:33:28;6.80;93.70
39931;DHT22;26635;-35.248;149.138;2022-08-01T14:36:13;6.80;93.60
39931;DHT22;26635;-35.248;149.138;2022-08-01T14:39:25;6.80;93.70
39931;DHT22;26635;-35.248;149.138;2022-08-01T14:42:17;6.80;93.70
39931;DHT22;26635;-35.248;149.138;2022-08-01T14:45:14;6.80;93.90
39931;DHT22;26635;-35.248;149.138;2022-08-01T14:47:55;6.80;93.80
39931;DHT22;26635;-35.248;149.138;2022-08-01T14:50:29;6.70;93.70
39931;DHT22;26635;-35.248;149.138;2022-08-01T14:53:23;6.70;93.90
39931;DHT22;26635;-35.248;149.138;2022-08-01T14:55:56;6.70;93.90
39931;DHT22;26635;-35.248;149.138;2022-08-01T14:58:29;6.70;93.70
39931;DHT22;26635;-35.248;149.138;2022-08-01T15:01:29;6.70;93.80
39931;DHT22;26635;-35.248;149.138;2022-08-01T15:03:59;6.70;94.00
39931;DHT22;26635;-35.248;149.138;2022-08-01T15:06:37;6.70;93.70
39931;DHT22;26635;-35.248;149.138;2022-08-01T15:09:30;6.70;93.70
39931;DHT22;26635;-35.248;149.138;2022-08-01T15:12:06;6.70;93.70
39931;DHT22;26635;-35.248;149.138;2022-08-01T15:14:47;6.70;93.80
39931;DHT22;26635;-35.248;149.138;2022-08-01T15:17:26;6.70;93.70
39931;DHT22;26635;-35.248;149.138;2022-08-01T15:20:06;6.60;93.80
39931;DHT22;26635;-35.248;149.138;2022-08-01T15:22:49;6.60;93.60
39931;DHT22;26635;-35.248;149.138;2022-08-01T15:25:20;6.50;93.60
39931;DHT22;26635;-35.248;149.138;2022-08-01T15:27:59;6.50;93.70
39931;DHT22;26635;-35.248;149.138;2022-08-01T15:30:38;6.50;93.70
39931;DHT22;26635;-35.248;149.138;2022-08-01T15:33:19;6.50;93.90
39931;DHT22;26635;-35.248;149.138;2022-08-01T15:36:31;6.50;93.90
39931;DHT22;26635;-35.248;149.138;2022-08-01T15:39:35;6.50;93.80
39931;DHT22;26635;-35.248;149.138;2022-08-01T15:42:10;6.50;93.80
39931;DHT22;26635;-35.248;149.138;2022-08-01T15:45:03;6.50;93.70
39931;DHT22;26635;-35.248;149.138;2022-08-01T15:47:44;6.50;93.80
39931;DHT22;26635;-35.248;149.138;2022-08-01T15:50:22;6.50;93.60
39931;DHT22;26635;-35.248;149.138;2022-08-01T15:52:55;6.50;93.60
39931;DHT22;26635;-35.248;149.138;2022-08-01T15:55:27;6.50;93.70
39931;DHT22;26635;-35.248;149.138;2022-08-01T15:58:21;6.50;93.70
39931;DHT22;26635;-35.248;149.138;2022-08-01T16:01:00;6.40;93.60
39931;DHT22;26635;-35.248;149.138;2022-08-01T16:03:42;6.50;93.70
39931;DHT22;26635;-35.248;149.138;2022-08-01T16:06:23;6.50;93.50
39931;DHT22;26635;-35.248;149.138;2022-08-01T16:08:54;6.50;93.40
39931;DHT22;26635;-35.248;149.138;2022-08-01T16:11:30;6.50;93.40
39931;DHT22;26635;-35.248;149.138;2022-08-01T16:14:01;6.50;93.20
39931;DHT22;26635;-35.248;149.138;2022-08-01T16:16:32;6.50;93.40
39931;DHT22;26635;-35.248;149.138;2022-08-01T16:19:11;6.50;93.20
39931;DHT22;26635;-35.248;149.138;2022-08-01T16:21:56;6.50;93.30
39931;DHT22;26635;-35.248;149.138;2022-08-01T16:24:29;6.50;93.40
39931;DHT22;26635;-35.248;149.138;2022-08-01T16:27:02;6.50;93.20
39931;DHT22;26635;-35.248;149.138;2022-08-01T16:29:37;6.60;93.20
39931;DHT22;26635;-35.248;149.138;2022-08-01T16:32:29;6.50;93.20
39931;DHT22;26635;-35.248;149.138;2022-08-01T16:35:07;6.50;93.10
39931;DHT22;26635;-35.248;149.138;2022-08-01T16:37:45;6.50;93.20
39931;DHT22;26635;-35.248;149.138;2022-08-01T16:40:15;6.50;93.10
39931;DHT22;26635;-35.248;149.138;2022-08-01T16:42:52;6.50;93.10
39931;DHT22;26635;-35.248;149.138;2022-08-01T16:45:26;6.50;93.40
39931;DHT22;26635;-35.248;149.138;2022-08-01T16:48:30;6.40;93.30
39931;DHT22;26635;-35.248;149.138;2022-08-01T16:51:27;6.40;93.30
39931;DHT22;26635;-35.248;149.138;2022-08-01T16:54:12;6.40;93.30
39931;DHT22;26635;-35.248;149.138;2022-08-01T16:57:11;6.40;93.20
39931;DHT22;26635;-35.248;149.138;2022-08-01T16:59:56;6.30;93.40
39931;DHT22;26635;-35.248;149.138;2022-08-01T17:02:31;6.30;93.60
39931;DHT22;26635;-35.248;149.138;2022-08-01T17:05:02;6.30;93.50
39931;DHT22;26635;-35.248;149.138;2022-08-01T17:07:57;6.20;93.60
39931;DHT22;26635;-35.248;149.138;2022-08-01T17:10:28;6.20;93.50
39931;DHT22;26635;-35.248;149.138;2022-08-01T17:12:59;6.20;93.60
39931;DHT22;26635;-35.248;149.138;2022-08-01T17:15:36;6.20;93.80
39931;DHT22;26635;-35.248;149.138;2022-08-01T17:18:07;6.10;93.70
39931;DHT22;26635;-35.248;149.138;2022-08-01T17:20:50;6.10;93.80
39931;DHT22;26635;-35.248;149.138;2022-08-01T17:23:30;6.10;93.60
39931;DHT22;26635;-35.248;149.138;2022-08-01T17:26:08;6.10;93.80
39931;DHT22;26635;-35.248;149.138;2022-08-01T17:28:46;6.10;93.90
39931;DHT22;26635;-35.248;149.138;2022-08-01T17:31:33;6.10;93.80
39931;DHT22;26635;-35.248;149.138;2022-08-01T17:34:30;6.10;93.70
39931;DHT22;26635;-35.248;149.138;2022-08-01T17:37:09;6.00;93.90
39931;DHT22;26635;-35.248;149.138;2022-08-01T17:39:54;6.00;93.90
39931;DHT22;26635;-35.248;149.138;2022-08-01T17:42:46;6.00;93.90
39931;DHT22;26635;-35.248;149.138;2022-08-01T17:45:17;6.00;93.80
39931;DHT22;26635;-35.248;149.138;2022-08-01T17:47:57;5.90;93.70